LFCR/RDZ METAR and TAF weather

Enter ICAO airport designator
Station Type Date Time Source
LFCR METAR 2019/06/17 13:30 UTC NOAA

LFCR 171330Z AUTO 35003KT 270V080 CAVOK 26/08 Q1018 NOSIG


Station Type Date Time Source
LFCR Decoded METAR 2019/06/17 13:30 UTC NOAA

Rodez, France (LFCR) 44-24N 002-29E 580M
Jun 17, 2019 - 09:30 AM EDT / 2019.06.17 1330 UTC
Wind: from the N (350 degrees) at 3 MPH (3 KT) (direction variable):0
Visibility: greater than 7 mile(s):0
Temperature: 78 F (26 C)
Dew Point: 46 F (8 C)
Relative Humidity: 31%
Pressure (altimeter): 30.06 in. Hg (1018 hPa)
ob: LFCR 171330Z AUTO 35003KT 270V080 CAVOK 26/08 Q1018 NOSIG
cycle: 13

Station Type Date Time Source
LFCR TAF 2019/06/17 12:21 UTC NOAA

TAF LFCR 171100Z 1712/1812 VRB03KT CAVOK
BECMG 1803/1806 13012KT

Example: see airport list